createdAt,value
2019-03-15T00:00:16.894Z,0.00
2019-03-15T00:01:17.093Z,0.00
2019-03-15T00:02:17.009Z,0.00
2019-03-15T00:03:16.855Z,0.00
2019-03-15T00:04:16.844Z,0.00
2019-03-15T00:05:16.850Z,0.00
2019-03-15T00:06:16.881Z,0.00
2019-03-15T00:07:16.812Z,0.00
2019-03-15T00:08:17.121Z,0.00
2019-03-15T00:09:16.790Z,0.00
2019-03-15T00:10:16.779Z,0.00
2019-03-15T00:11:16.775Z,0.00
2019-03-15T00:12:16.757Z,0.00
2019-03-15T00:13:16.933Z,0.00
2019-03-15T00:14:16.736Z,0.00
2019-03-15T00:15:18.403Z,0.00
2019-03-15T00:16:16.739Z,0.00
2019-03-15T00:17:16.714Z,0.00
2019-03-15T00:18:16.691Z,0.00
2019-03-15T00:19:17.214Z,0.00
2019-03-15T00:20:16.659Z,0.00
2019-03-15T00:21:16.659Z,0.00
2019-03-15T00:22:16.657Z,0.00
2019-03-15T00:23:16.676Z,0.00
2019-03-15T00:24:16.638Z,0.00
2019-03-15T00:25:16.990Z,0.00
2019-03-15T00:26:16.884Z,0.00
2019-03-15T00:27:23.307Z,0.00
2019-03-15T00:28:16.608Z,0.00
2019-03-15T00:29:16.606Z,0.00
2019-03-15T00:30:16.550Z,0.00
2019-03-15T00:31:16.972Z,0.00
2019-03-15T00:32:16.543Z,0.00
2019-03-15T00:33:16.524Z,0.00
2019-03-15T00:34:16.737Z,0.00
2019-03-15T00:35:16.495Z,0.00
2019-03-15T00:36:17.796Z,0.00
2019-03-15T00:37:16.786Z,0.00
2019-03-15T00:38:16.469Z,0.00
2019-03-15T00:39:16.495Z,0.00
2019-03-15T00:40:16.819Z,0.00
2019-03-15T00:41:16.428Z,0.00
2019-03-15T00:42:16.673Z,0.00
2019-03-15T00:43:16.570Z,0.00
2019-03-15T00:44:16.418Z,0.00
2019-03-15T00:45:16.386Z,0.00
2019-03-15T00:46:16.376Z,0.00
2019-03-15T00:47:17.418Z,0.00
2019-03-15T00:48:16.360Z,0.00
2019-03-15T00:49:16.501Z,0.00
2019-03-15T00:50:16.340Z,0.00
2019-03-15T00:51:16.327Z,0.00
2019-03-15T00:52:16.351Z,0.00
2019-03-15T00:53:16.297Z,0.00
2019-03-15T00:54:16.536Z,0.00
2019-03-15T00:55:16.284Z,0.00
2019-03-15T00:56:16.280Z,0.00
2019-03-15T00:57:17.258Z,0.00
2019-03-15T00:58:16.239Z,0.00
2019-03-15T00:59:16.235Z,0.00
2019-03-15T01:00:16.502Z,0.00
2019-03-15T01:01:16.668Z,0.00
2019-03-15T01:02:17.036Z,0.00
2019-03-15T01:03:16.409Z,0.00
2019-03-15T01:04:16.177Z,0.00
2019-03-15T01:05:16.262Z,0.00
2019-03-15T01:06:16.354Z,0.00
2019-03-15T01:07:17.104Z,0.00
2019-03-15T01:08:19.606Z,0.00
2019-03-15T01:09:16.135Z,0.00
2019-03-15T01:10:16.111Z,0.00
2019-03-15T01:11:16.107Z,0.00
2019-03-15T01:12:16.201Z,0.00
2019-03-15T01:13:16.109Z,0.00
2019-03-15T01:14:16.631Z,0.00
2019-03-15T01:15:16.352Z,0.00
2019-03-15T01:16:16.149Z,0.00
2019-03-15T01:17:16.069Z,0.00
2019-03-15T01:18:16.659Z,0.00
2019-03-15T01:19:16.384Z,0.00
2019-03-15T01:20:16.005Z,0.00
2019-03-15T01:21:15.990Z,0.00
2019-03-15T01:22:15.976Z,0.00
2019-03-15T01:23:16.004Z,0.00
2019-03-15T01:24:16.011Z,0.00
2019-03-15T01:25:16.367Z,0.00
2019-03-15T01:26:15.946Z,0.00
2019-03-15T01:27:16.011Z,0.00
2019-03-15T01:28:15.954Z,0.00
2019-03-15T01:29:15.952Z,0.00
2019-03-15T01:30:15.898Z,0.00
2019-03-15T01:31:17.068Z,0.00
2019-03-15T01:32:15.877Z,0.00
2019-03-15T01:33:15.911Z,0.00
2019-03-15T01:34:15.860Z,0.00
2019-03-15T01:35:16.509Z,0.00
2019-03-15T01:36:16.069Z,0.00
2019-03-15T01:37:15.816Z,0.00
2019-03-15T01:38:15.826Z,0.00
2019-03-15T01:39:16.487Z,0.00
2019-03-15T01:40:15.793Z,0.00
2019-03-15T01:41:16.081Z,0.00
2019-03-15T01:42:15.765Z,0.00
2019-03-15T01:43:15.750Z,0.00
2019-03-15T01:44:15.738Z,0.00
2019-03-15T01:45:15.729Z,0.00
2019-03-15T01:46:16.085Z,0.00
2019-03-15T01:47:15.721Z,0.00
2019-03-15T01:48:15.797Z,0.00
2019-03-15T01:49:15.723Z,0.00
2019-03-15T01:50:15.670Z,0.00
2019-03-15T01:51:15.683Z,0.00
2019-03-15T01:52:15.815Z,0.00
2019-03-15T01:53:16.820Z,0.00
2019-03-15T01:54:15.630Z,0.00
2019-03-15T01:55:15.623Z,0.00
2019-03-15T01:56:15.605Z,0.00
2019-03-15T01:57:15.606Z,0.00
2019-03-15T01:58:15.996Z,0.00
2019-03-15T01:59:15.573Z,0.00
2019-03-15T02:00:15.556Z,0.00
2019-03-15T02:01:15.564Z,0.00
2019-03-15T02:02:15.573Z,0.00
2019-03-15T02:03:15.671Z,0.00
2019-03-15T02:04:16.050Z,0.00
2019-03-15T02:05:15.526Z,0.00
2019-03-15T02:06:17.474Z,0.00
2019-03-15T02:07:15.482Z,0.00
2019-03-15T02:08:15.481Z,0.00
2019-03-15T02:09:15.455Z,0.00
2019-03-15T02:10:15.549Z,0.00
2019-03-15T02:11:16.273Z,0.00
2019-03-15T02:12:15.429Z,0.00
2019-03-15T02:13:15.421Z,0.00
2019-03-15T02:14:15.435Z,0.00
2019-03-15T02:15:15.559Z,0.00
2019-03-15T02:16:15.383Z,0.00
2019-03-15T02:17:15.400Z,0.00
2019-03-15T02:18:15.397Z,0.00
2019-03-15T02:19:15.364Z,0.00
2019-03-15T02:20:15.506Z,0.00
2019-03-15T02:21:15.939Z,0.00
2019-03-15T02:22:15.353Z,0.00
2019-03-15T02:23:15.319Z,0.00
2019-03-15T02:24:15.304Z,0.00
2019-03-15T02:25:15.579Z,0.00
2019-03-15T02:26:15.273Z,0.00
2019-03-15T02:27:16.055Z,0.00
2019-03-15T02:28:15.261Z,0.00
2019-03-15T02:29:15.240Z,0.00
2019-03-15T02:30:15.241Z,0.00
2019-03-15T02:31:15.220Z,0.00
2019-03-15T02:32:15.309Z,0.00
2019-03-15T02:33:15.373Z,0.00
2019-03-15T02:34:15.196Z,0.00
2019-03-15T02:35:15.422Z,0.00
2019-03-15T02:36:15.300Z,0.00
2019-03-15T02:37:15.198Z,0.00
2019-03-15T02:38:15.143Z,0.00
2019-03-15T02:39:15.181Z,0.00
2019-03-15T02:40:15.304Z,0.00
2019-03-15T02:41:15.118Z,0.00
2019-03-15T02:42:15.428Z,0.00
2019-03-15T02:43:15.089Z,0.00
2019-03-15T02:44:15.075Z,0.00
2019-03-15T02:45:15.207Z,0.00
2019-03-15T02:46:15.058Z,0.00
2019-03-15T02:47:15.059Z,0.00
2019-03-15T02:48:15.374Z,0.00
2019-03-15T02:49:15.021Z,0.00
2019-03-15T02:50:15.012Z,0.00
2019-03-15T02:51:15.191Z,0.00
2019-03-15T02:52:15.768Z,0.00
2019-03-15T02:53:15.098Z,0.00
2019-03-15T02:54:14.966Z,0.00
2019-03-15T02:55:15.223Z,0.00
2019-03-15T02:56:15.129Z,0.00
2019-03-15T02:57:14.938Z,0.00
2019-03-15T02:58:14.937Z,0.00
2019-03-15T02:59:15.111Z,0.00
2019-03-15T03:00:14.900Z,0.00
2019-03-15T03:01:14.896Z,0.00
2019-03-15T03:02:14.888Z,0.00
2019-03-15T03:03:14.899Z,0.00
2019-03-15T03:04:14.868Z,0.00
2019-03-15T03:05:15.329Z,0.00
2019-03-15T03:06:14.840Z,0.00
2019-03-15T03:07:14.840Z,0.00
2019-03-15T03:08:14.823Z,0.00
2019-03-15T03:09:14.948Z,0.00
2019-03-15T03:10:14.792Z,0.00
2019-03-15T03:11:15.139Z,0.00
2019-03-15T03:12:14.771Z,0.00
2019-03-15T03:13:14.767Z,0.00
2019-03-15T03:14:14.752Z,0.00
2019-03-15T03:15:14.754Z,0.00
2019-03-15T03:16:14.734Z,0.00
2019-03-15T03:17:14.997Z,0.00
2019-03-15T03:18:15.112Z,0.00
2019-03-15T03:19:14.692Z,0.00
2019-03-15T03:20:14.694Z,0.00
2019-03-15T03:21:15.277Z,0.00
2019-03-15T03:22:14.676Z,0.00
2019-03-15T03:23:14.963Z,0.00
2019-03-15T03:24:14.642Z,0.00
2019-03-15T03:25:14.634Z,0.00
2019-03-15T03:26:14.737Z,0.00
2019-03-15T03:27:14.603Z,0.00
2019-03-15T03:28:15.100Z,0.00
2019-03-15T03:29:14.587Z,0.00
2019-03-15T03:30:16.427Z,0.00
2019-03-15T03:31:15.885Z,0.00
2019-03-15T03:32:14.878Z,0.00
2019-03-15T03:33:14.858Z,0.00
2019-03-15T03:34:15.039Z,0.00
2019-03-15T03:35:14.521Z,0.00
2019-03-15T03:36:14.500Z,0.00
2019-03-15T03:37:14.499Z,0.00
2019-03-15T03:38:14.582Z,0.00
2019-03-15T03:39:14.489Z,0.00
2019-03-15T03:40:14.673Z,0.00
2019-03-15T03:41:14.542Z,0.00
2019-03-15T03:42:14.601Z,0.00
2019-03-15T03:43:14.478Z,0.00
2019-03-15T03:44:14.666Z,0.00
2019-03-15T03:45:14.560Z,0.00
2019-03-15T03:46:15.047Z,0.00
2019-03-15T03:47:14.393Z,0.00
2019-03-15T03:48:15.736Z,0.00
2019-03-15T03:49:14.396Z,0.00
2019-03-15T03:50:14.350Z,0.00
2019-03-15T03:51:14.548Z,0.00
2019-03-15T03:52:14.329Z,0.00
2019-03-15T03:53:14.590Z,0.00
2019-03-15T03:54:14.320Z,0.00
2019-03-15T03:55:14.292Z,0.00
2019-03-15T03:56:14.285Z,0.00
2019-03-15T03:57:14.752Z,0.00
2019-03-15T03:58:14.341Z,0.00
2019-03-15T03:59:14.761Z,0.00
2019-03-15T04:00:14.247Z,0.00
2019-03-15T04:01:14.229Z,0.00
2019-03-15T04:02:14.290Z,0.00
2019-03-15T04:03:14.210Z,0.00
2019-03-15T04:04:14.193Z,0.00
2019-03-15T04:05:14.333Z,0.00
2019-03-15T04:06:14.179Z,0.00
2019-03-15T04:07:14.162Z,0.00
2019-03-15T04:08:14.156Z,0.00
2019-03-15T04:09:14.140Z,0.00
2019-03-15T04:10:14.133Z,0.00
2019-03-15T04:11:14.518Z,0.00
2019-03-15T04:12:14.139Z,0.00
2019-03-15T04:13:14.249Z,0.00
2019-03-15T04:14:14.099Z,0.00
2019-03-15T04:15:14.295Z,0.00
2019-03-15T04:16:14.448Z,0.00
2019-03-15T04:17:14.294Z,0.00
2019-03-15T04:18:14.044Z,0.00
2019-03-15T04:19:14.029Z,0.00
2019-03-15T04:20:14.026Z,0.00
2019-03-15T04:21:14.081Z,0.00
2019-03-15T04:22:14.394Z,0.00
2019-03-15T04:23:15.116Z,0.00
2019-03-15T04:24:13.988Z,0.00
2019-03-15T04:25:13.988Z,0.00
2019-03-15T04:26:13.974Z,0.00
2019-03-15T04:27:13.982Z,0.00
2019-03-15T04:28:14.400Z,0.00
2019-03-15T04:29:13.959Z,0.00
2019-03-15T04:30:14.097Z,0.00
2019-03-15T04:31:14.081Z,0.00
2019-03-15T04:32:14.152Z,0.00
2019-03-15T04:33:14.340Z,0.00
2019-03-15T04:34:14.262Z,0.00
2019-03-15T04:35:15.711Z,0.00
2019-03-15T04:36:14.661Z,0.00
2019-03-15T04:37:13.959Z,0.00
2019-03-15T04:38:14.613Z,0.00
2019-03-15T04:39:14.625Z,0.00
2019-03-15T04:40:13.798Z,0.00
2019-03-15T04:41:14.046Z,0.00
2019-03-15T04:42:13.779Z,0.00
2019-03-15T04:43:13.765Z,0.00
2019-03-15T04:44:13.760Z,0.00
2019-03-15T04:45:14.049Z,0.00
2019-03-15T04:46:13.749Z,0.00
2019-03-15T04:47:14.120Z,0.00
2019-03-15T04:48:14.786Z,0.00
2019-03-15T04:49:13.805Z,0.00
2019-03-15T04:50:13.700Z,0.00
2019-03-15T04:51:14.187Z,0.00
2019-03-15T04:52:14.137Z,0.00
2019-03-15T04:53:15.066Z,0.00
2019-03-15T04:54:13.645Z,0.00
2019-03-15T04:55:13.669Z,0.00
2019-03-15T04:56:15.539Z,0.00
2019-03-15T04:57:13.607Z,0.00
2019-03-15T04:58:14.005Z,0.00
2019-03-15T04:59:13.602Z,0.00
2019-03-15T05:00:13.584Z,0.00
2019-03-15T05:01:13.587Z,0.00
2019-03-15T05:02:13.558Z,0.00
2019-03-15T05:03:13.540Z,0.00
2019-03-15T05:04:13.973Z,0.00
2019-03-15T05:05:13.521Z,0.00
2019-03-15T05:06:13.933Z,0.00
2019-03-15T05:07:13.502Z,0.00
2019-03-15T05:08:13.489Z,0.00
2019-03-15T05:09:13.484Z,0.00
2019-03-15T05:10:13.464Z,0.00
2019-03-15T05:11:13.596Z,0.00
2019-03-15T05:12:13.509Z,0.00
2019-03-15T05:13:13.513Z,0.00
2019-03-15T05:14:13.439Z,0.00
2019-03-15T05:15:13.418Z,5.62
2019-03-15T05:16:13.402Z,5.62
2019-03-15T05:17:17.899Z,5.62
2019-03-15T05:18:13.385Z,5.62
2019-03-15T05:19:13.408Z,5.62
2019-03-15T05:20:13.356Z,11.25
2019-03-15T05:21:13.440Z,11.25
2019-03-15T05:22:13.336Z,11.25
2019-03-15T05:23:13.676Z,11.25
2019-03-15T05:24:13.342Z,11.25
2019-03-15T05:25:13.301Z,11.25
2019-03-15T05:26:13.333Z,16.88
2019-03-15T05:27:13.278Z,16.88
2019-03-15T05:28:13.273Z,16.88
2019-03-15T05:29:13.394Z,16.88
2019-03-15T05:30:13.249Z,22.50
2019-03-15T05:31:13.234Z,22.50
2019-03-15T05:32:13.233Z,22.50
2019-03-15T05:33:13.384Z,16.88
2019-03-15T05:34:13.217Z,11.25
2019-03-15T05:35:13.394Z,11.25
2019-03-15T05:36:13.344Z,22.50
2019-03-15T05:37:13.188Z,22.50
2019-03-15T05:38:14.990Z,22.50
2019-03-15T05:39:13.150Z,22.50
2019-03-15T05:40:13.670Z,22.50
2019-03-15T05:41:13.126Z,22.50
2019-03-15T05:42:13.238Z,16.88
2019-03-15T05:43:13.110Z,16.88
2019-03-15T05:44:18.471Z,16.88
2019-03-15T05:45:13.414Z,11.25
2019-03-15T05:46:15.527Z,22.50
2019-03-15T05:47:13.876Z,22.50
2019-03-15T05:48:13.058Z,28.12
2019-03-15T05:49:13.038Z,28.12
2019-03-15T05:50:13.411Z,33.75
2019-03-15T05:51:13.263Z,28.12
2019-03-15T05:52:13.006Z,33.75
2019-03-15T05:53:13.349Z,28.12
2019-03-15T05:54:12.980Z,22.50
2019-03-15T05:55:13.151Z,22.50
2019-03-15T05:56:12.988Z,22.50
2019-03-15T05:57:13.006Z,28.12
2019-03-15T05:58:13.084Z,28.12
2019-03-15T05:59:14.959Z,22.50
2019-03-15T06:00:12.918Z,22.50
2019-03-15T06:01:12.906Z,28.12
2019-03-15T06:02:12.898Z,39.38
2019-03-15T06:03:12.967Z,56.25
2019-03-15T06:04:13.003Z,73.12
2019-03-15T06:05:12.860Z,78.75
2019-03-15T06:06:12.848Z,67.50
2019-03-15T06:07:12.841Z,50.62
2019-03-15T06:08:12.860Z,56.25
2019-03-15T06:09:12.820Z,67.50
2019-03-15T06:10:12.971Z,78.75
2019-03-15T06:11:12.797Z,95.62
2019-03-15T06:12:12.795Z,101.25
2019-03-15T06:13:12.796Z,118.12
2019-03-15T06:14:12.767Z,123.75
2019-03-15T06:15:12.756Z,123.75
2019-03-15T06:16:12.815Z,112.50
2019-03-15T06:17:12.732Z,106.88
2019-03-15T06:18:12.729Z,112.50
2019-03-15T06:19:12.736Z,118.12
2019-03-15T06:20:14.008Z,123.75
2019-03-15T06:21:12.688Z,140.62
2019-03-15T06:22:12.973Z,123.75
2019-03-15T06:23:12.866Z,118.12
2019-03-15T06:24:12.663Z,112.50
2019-03-15T06:25:12.640Z,106.88
2019-03-15T06:26:12.639Z,118.12
2019-03-15T06:27:12.892Z,112.50
2019-03-15T06:28:12.615Z,112.50
2019-03-15T06:29:12.604Z,118.12
2019-03-15T06:30:12.600Z,118.12
2019-03-15T06:31:12.601Z,123.75
2019-03-15T06:32:12.603Z,118.12
2019-03-15T06:33:13.006Z,118.12
2019-03-15T06:34:12.565Z,123.75
2019-03-15T06:35:12.540Z,123.75
2019-03-15T06:36:12.537Z,135.00
2019-03-15T06:37:12.519Z,151.88
2019-03-15T06:38:12.503Z,213.75
2019-03-15T06:39:16.523Z,191.25
2019-03-15T06:40:13.766Z,191.25
2019-03-15T06:41:14.675Z,202.50
2019-03-15T06:42:12.498Z,236.25
2019-03-15T06:43:13.464Z,196.88
2019-03-15T06:44:12.886Z,191.25
2019-03-15T06:45:12.453Z,219.38
2019-03-15T06:46:14.702Z,208.12
2019-03-15T06:47:12.460Z,191.25
2019-03-15T06:48:12.384Z,185.62
2019-03-15T06:49:12.538Z,140.62
2019-03-15T06:50:13.580Z,151.88
2019-03-15T06:51:12.383Z,174.38
2019-03-15T06:52:12.637Z,174.38
2019-03-15T06:53:12.374Z,140.62
2019-03-15T06:54:12.326Z,140.62
2019-03-15T06:55:12.322Z,185.62
2019-03-15T06:56:12.298Z,112.50
2019-03-15T06:57:12.302Z,106.88
2019-03-15T06:58:18.226Z,118.12
2019-03-15T06:59:12.324Z,95.62
2019-03-15T07:00:12.252Z,106.88
2019-03-15T07:01:12.331Z,112.50
2019-03-15T07:02:13.718Z,95.62
2019-03-15T07:03:13.023Z,112.50
2019-03-15T07:04:12.220Z,95.62
2019-03-15T07:05:12.623Z,90.00
2019-03-15T07:06:12.203Z,123.75
2019-03-15T07:07:15.106Z,163.12
2019-03-15T07:08:12.910Z,174.38
2019-03-15T07:09:12.176Z,151.88
2019-03-15T07:10:12.143Z,174.38
2019-03-15T07:11:12.146Z,213.75
2019-03-15T07:12:12.137Z,135.00
2019-03-15T07:13:12.114Z,151.88
2019-03-15T07:14:12.560Z,202.50
2019-03-15T07:15:12.359Z,163.12
2019-03-15T07:16:12.186Z,208.12
2019-03-15T07:17:14.716Z,225.00
2019-03-15T07:18:12.530Z,219.38
2019-03-15T07:19:25.664Z,208.12
2019-03-15T07:20:13.043Z,168.75
2019-03-15T07:21:13.299Z,157.50
2019-03-15T07:22:13.459Z,157.50
2019-03-15T07:23:13.350Z,168.75
2019-03-15T07:24:24.422Z,196.88
2019-03-15T07:25:12.991Z,196.88
2019-03-15T07:26:12.350Z,219.38
2019-03-15T07:27:13.434Z,241.88
2019-03-15T07:28:11.964Z,309.38
2019-03-15T07:29:11.959Z,326.25
2019-03-15T07:30:11.951Z,388.12
2019-03-15T07:31:12.028Z,405.00
2019-03-15T07:32:12.194Z,466.88
2019-03-15T07:33:12.068Z,523.12
2019-03-15T07:34:13.776Z,573.75
2019-03-15T07:35:12.144Z,540.00
2019-03-15T07:36:11.986Z,455.62
2019-03-15T07:37:12.534Z,388.12
2019-03-15T07:38:11.944Z,382.50
2019-03-15T07:39:12.950Z,388.12
2019-03-15T07:40:11.821Z,399.38
2019-03-15T07:41:12.185Z,416.25
2019-03-15T07:42:30.388Z,433.12
2019-03-15T07:43:12.375Z,371.25
2019-03-15T07:44:12.658Z,376.88
2019-03-15T07:45:11.764Z,405.00
2019-03-15T07:46:11.773Z,478.12
2019-03-15T07:47:11.759Z,534.38
2019-03-15T07:48:22.546Z,450.00
2019-03-15T07:49:12.930Z,410.62
2019-03-15T07:50:14.290Z,489.38
2019-03-15T07:51:11.700Z,495.00
2019-03-15T07:52:11.732Z,478.12
2019-03-15T07:53:11.685Z,517.50
2019-03-15T07:54:11.676Z,624.38
2019-03-15T07:55:12.208Z,545.62
2019-03-15T07:56:11.641Z,455.62
2019-03-15T07:57:11.653Z,483.75
2019-03-15T07:58:11.618Z,489.38
2019-03-15T07:59:11.615Z,500.62
2019-03-15T08:00:11.617Z,500.62
2019-03-15T08:01:12.023Z,568.12
2019-03-15T08:02:11.581Z,528.75
2019-03-15T08:03:11.596Z,489.38
2019-03-15T08:04:17.067Z,416.25
2019-03-15T08:05:12.546Z,405.00
2019-03-15T08:06:12.004Z,371.25
2019-03-15T08:07:11.667Z,343.12
2019-03-15T08:08:11.518Z,354.38
2019-03-15T08:09:11.505Z,281.25
2019-03-15T08:10:11.490Z,258.75
2019-03-15T08:11:12.073Z,309.38
2019-03-15T08:12:11.461Z,354.38
2019-03-15T08:13:11.454Z,365.62
2019-03-15T08:14:11.460Z,427.50
2019-03-15T08:15:11.503Z,495.00
2019-03-15T08:16:11.645Z,585.00
2019-03-15T08:17:11.405Z,1141.88
2019-03-15T08:18:11.648Z,613.12
2019-03-15T08:19:11.406Z,517.50
2019-03-15T08:20:11.406Z,388.12
2019-03-15T08:21:11.363Z,382.50
2019-03-15T08:22:11.444Z,410.62
2019-03-15T08:23:11.557Z,461.25
2019-03-15T08:24:11.462Z,506.25
2019-03-15T08:25:11.328Z,601.88
2019-03-15T08:26:11.870Z,900.00
2019-03-15T08:27:11.304Z,669.38
2019-03-15T08:28:11.307Z,742.50
2019-03-15T08:29:11.430Z,686.25
2019-03-15T08:30:11.296Z,759.38
2019-03-15T08:31:11.675Z,781.88
2019-03-15T08:32:11.484Z,675.00
2019-03-15T08:33:11.396Z,624.38
2019-03-15T08:34:11.320Z,675.00
2019-03-15T08:35:11.200Z,669.38
2019-03-15T08:36:11.197Z,708.75
2019-03-15T08:37:11.697Z,500.62
2019-03-15T08:38:11.179Z,393.75
2019-03-15T08:39:11.231Z,337.50
2019-03-15T08:40:11.159Z,376.88
2019-03-15T08:41:11.139Z,388.12
2019-03-15T08:42:11.173Z,399.38
2019-03-15T08:43:12.106Z,399.38
2019-03-15T08:44:11.120Z,489.38
2019-03-15T08:45:11.110Z,416.25
2019-03-15T08:46:11.085Z,343.12
2019-03-15T08:47:11.157Z,815.62
2019-03-15T08:48:11.062Z,354.38
2019-03-15T08:49:11.426Z,286.88
2019-03-15T08:50:14.537Z,337.50
2019-03-15T08:51:11.122Z,444.38
2019-03-15T08:52:11.021Z,495.00
2019-03-15T08:53:11.028Z,421.88
2019-03-15T08:54:11.376Z,416.25
2019-03-15T08:55:11.000Z,444.38
2019-03-15T08:56:14.263Z,455.62
2019-03-15T08:57:10.978Z,433.12
2019-03-15T08:58:14.582Z,343.12
2019-03-15T08:59:12.539Z,303.75
2019-03-15T09:00:10.936Z,225.00
2019-03-15T09:01:11.219Z,241.88
2019-03-15T09:02:10.922Z,281.25
2019-03-15T09:03:10.900Z,320.62
2019-03-15T09:04:15.469Z,275.62
2019-03-15T09:05:11.075Z,331.88
2019-03-15T09:06:10.886Z,382.50
2019-03-15T09:07:10.852Z,410.62
2019-03-15T09:08:11.234Z,523.12
2019-03-15T09:09:10.828Z,579.38
2019-03-15T09:10:21.986Z,624.38
2019-03-15T09:11:12.107Z,601.88
2019-03-15T09:12:10.808Z,675.00
2019-03-15T09:13:10.934Z,652.50
2019-03-15T09:14:10.785Z,630.00
2019-03-15T09:15:10.816Z,562.50
2019-03-15T09:16:10.756Z,579.38
2019-03-15T09:17:11.222Z,495.00
2019-03-15T09:18:10.725Z,489.38
2019-03-15T09:19:10.748Z,472.50
2019-03-15T09:20:10.712Z,517.50
2019-03-15T09:21:11.305Z,579.38
2019-03-15T09:22:10.692Z,635.62
2019-03-15T09:23:10.687Z,590.62
2019-03-15T09:24:10.659Z,601.88
2019-03-15T09:25:19.439Z,466.88
2019-03-15T09:26:12.509Z,343.12
2019-03-15T09:27:10.826Z,405.00
2019-03-15T09:28:10.697Z,511.88
2019-03-15T09:29:10.683Z,534.38
2019-03-15T09:30:22.616Z,444.38
2019-03-15T09:31:11.639Z,405.00
2019-03-15T09:32:11.220Z,461.25
2019-03-15T09:33:10.979Z,478.12
2019-03-15T09:34:10.561Z,511.88
2019-03-15T09:35:10.600Z,523.12
2019-03-15T09:36:10.533Z,523.12
2019-03-15T09:37:10.516Z,545.62
2019-03-15T09:38:10.811Z,517.50
2019-03-15T09:39:10.513Z,500.62
2019-03-15T09:40:10.485Z,472.50
2019-03-15T09:41:10.478Z,427.50
2019-03-15T09:42:10.477Z,438.75
2019-03-15T09:43:10.456Z,405.00
2019-03-15T09:44:10.912Z,354.38
2019-03-15T09:45:10.885Z,298.12
2019-03-15T09:46:10.421Z,360.00
2019-03-15T09:47:10.418Z,337.50
2019-03-15T09:48:10.400Z,326.25
2019-03-15T09:49:11.094Z,354.38
2019-03-15T09:50:21.106Z,427.50
2019-03-15T09:51:11.366Z,360.00
2019-03-15T09:52:10.350Z,303.75
2019-03-15T09:53:10.353Z,309.38
2019-03-15T09:54:10.326Z,326.25
2019-03-15T09:55:10.332Z,382.50
2019-03-15T09:56:10.457Z,348.75
2019-03-15T09:57:10.301Z,365.62
2019-03-15T09:58:10.289Z,371.25
2019-03-15T09:59:10.279Z,354.38
2019-03-15T10:00:10.363Z,444.38
2019-03-15T10:01:10.605Z,461.25
2019-03-15T10:02:13.617Z,416.25
2019-03-15T10:03:21.465Z,354.38
2019-03-15T10:04:11.212Z,281.25
2019-03-15T10:05:11.647Z,241.88
2019-03-15T10:06:15.728Z,320.62
2019-03-15T10:07:11.209Z,399.38
2019-03-15T10:08:10.199Z,556.88
2019-03-15T10:09:10.168Z,590.62
2019-03-15T10:10:13.996Z,675.00
2019-03-15T10:11:10.489Z,877.50
2019-03-15T10:12:10.151Z,652.50
2019-03-15T10:13:10.222Z,765.00
2019-03-15T10:14:10.112Z,888.75
2019-03-15T10:15:10.210Z,551.25
2019-03-15T10:16:10.496Z,748.12
2019-03-15T10:17:10.230Z,787.50
2019-03-15T10:18:10.443Z,703.12
2019-03-15T10:19:10.213Z,810.00
2019-03-15T10:20:12.581Z,714.38
2019-03-15T10:21:10.079Z,641.25
2019-03-15T10:22:10.022Z,770.62
2019-03-15T10:23:11.429Z,787.50
2019-03-15T10:24:10.009Z,776.25
2019-03-15T10:25:10.002Z,855.00
2019-03-15T10:26:10.025Z,798.75
2019-03-15T10:27:09.961Z,714.38
2019-03-15T10:28:09.964Z,731.25
2019-03-15T10:29:15.752Z,810.00
2019-03-15T10:30:10.925Z,843.75
2019-03-15T10:31:10.017Z,900.00
2019-03-15T10:32:09.951Z,742.50
2019-03-15T10:33:09.980Z,663.75
2019-03-15T10:34:10.104Z,483.75
2019-03-15T10:35:10.214Z,416.25
2019-03-15T10:36:10.086Z,472.50
2019-03-15T10:37:09.952Z,528.75
2019-03-15T10:38:10.033Z,528.75
2019-03-15T10:39:10.171Z,495.00
2019-03-15T10:40:09.832Z,562.50
2019-03-15T10:41:10.144Z,573.75
2019-03-15T10:42:09.794Z,540.00
2019-03-15T10:43:09.784Z,663.75
2019-03-15T10:44:09.782Z,641.25
2019-03-15T10:45:09.778Z,528.75
2019-03-15T10:46:09.775Z,523.12
2019-03-15T10:47:10.405Z,635.62
2019-03-15T10:48:09.737Z,635.62
2019-03-15T10:49:09.730Z,568.12
2019-03-15T10:50:09.711Z,556.88
2019-03-15T10:51:09.812Z,618.75
2019-03-15T10:52:10.085Z,641.25
2019-03-15T10:53:10.211Z,534.38
2019-03-15T10:54:09.681Z,517.50
2019-03-15T10:55:09.656Z,421.88
2019-03-15T10:56:11.677Z,326.25
2019-03-15T10:57:09.643Z,326.25
2019-03-15T10:58:09.643Z,326.25
2019-03-15T10:59:09.735Z,303.75
2019-03-15T11:00:09.605Z,360.00
2019-03-15T11:01:11.418Z,466.88
2019-03-15T11:02:09.582Z,528.75
2019-03-15T11:03:12.948Z,568.12
2019-03-15T11:04:09.597Z,601.88
2019-03-15T11:05:09.547Z,663.75
2019-03-15T11:06:09.543Z,697.50
2019-03-15T11:07:09.533Z,691.88
2019-03-15T11:08:09.614Z,697.50
2019-03-15T11:09:09.720Z,663.75
2019-03-15T11:10:09.525Z,528.75
2019-03-15T11:11:09.485Z,478.12
2019-03-15T11:12:09.466Z,466.88
2019-03-15T11:13:09.456Z,596.25
2019-03-15T11:14:09.463Z,843.75
2019-03-15T11:15:09.632Z,1063.12
2019-03-15T11:16:09.443Z,1400.62
2019-03-15T11:17:09.439Z,1248.75
2019-03-15T11:18:09.408Z,1243.12
2019-03-15T11:19:09.415Z,1423.12
2019-03-15T11:20:09.547Z,1080.00
2019-03-15T11:21:09.571Z,770.62
2019-03-15T11:22:11.106Z,573.75
2019-03-15T11:23:09.421Z,500.62
2019-03-15T11:24:09.350Z,618.75
2019-03-15T11:25:09.446Z,804.38
2019-03-15T11:26:14.009Z,911.25
2019-03-15T11:27:09.694Z,973.12
2019-03-15T11:28:09.516Z,1293.75
2019-03-15T11:29:09.285Z,1552.50
2019-03-15T11:30:09.275Z,2126.25
2019-03-15T11:31:09.271Z,1963.12
2019-03-15T11:32:09.272Z,2576.25
2019-03-15T11:33:09.236Z,1361.25
2019-03-15T11:34:10.101Z,1777.50
2019-03-15T11:35:09.253Z,1935.00
2019-03-15T11:36:09.210Z,1316.25
2019-03-15T11:37:09.238Z,1811.25
2019-03-15T11:38:09.200Z,1136.25
2019-03-15T11:39:09.172Z,1299.38
2019-03-15T11:40:10.350Z,1490.62
2019-03-15T11:41:09.164Z,1676.25
2019-03-15T11:42:09.183Z,1473.75
2019-03-15T11:43:10.724Z,1130.62
2019-03-15T11:44:09.145Z,888.75
2019-03-15T11:45:09.147Z,922.50
2019-03-15T11:46:09.623Z,1102.50
2019-03-15T11:47:09.104Z,877.50
2019-03-15T11:48:09.221Z,748.12
2019-03-15T11:49:09.065Z,680.62
2019-03-15T11:50:09.084Z,596.25
2019-03-15T11:51:09.166Z,613.12
2019-03-15T11:52:09.151Z,646.88
2019-03-15T11:53:09.034Z,630.00
2019-03-15T11:54:09.026Z,753.75
2019-03-15T11:55:09.003Z,781.88
2019-03-15T11:56:09.021Z,1417.50
2019-03-15T11:57:09.239Z,1198.12
2019-03-15T11:58:09.451Z,776.25
2019-03-15T11:59:09.713Z,708.75
2019-03-15T12:00:08.940Z,1068.75
2019-03-15T12:01:08.945Z,1203.75
2019-03-15T12:02:10.689Z,1170.00
2019-03-15T12:03:09.090Z,995.62
2019-03-15T12:04:09.801Z,939.38
2019-03-15T12:05:08.886Z,939.38
2019-03-15T12:06:08.882Z,900.00
2019-03-15T12:07:10.429Z,815.62
2019-03-15T12:08:09.035Z,680.62
2019-03-15T12:09:08.839Z,686.25
2019-03-15T12:10:08.897Z,646.88
2019-03-15T12:11:08.991Z,517.50
2019-03-15T12:12:10.214Z,528.75
2019-03-15T12:13:09.050Z,562.50
2019-03-15T12:14:09.099Z,618.75
2019-03-15T12:15:08.780Z,933.75
2019-03-15T12:16:08.780Z,1102.50
2019-03-15T12:17:09.068Z,866.25
2019-03-15T12:18:08.832Z,646.88
2019-03-15T12:19:08.725Z,500.62
2019-03-15T12:20:08.723Z,405.00
2019-03-15T12:21:08.705Z,450.00
2019-03-15T12:22:08.708Z,511.88
2019-03-15T12:23:09.040Z,421.88
2019-03-15T12:24:08.694Z,360.00
2019-03-15T12:25:09.250Z,450.00
2019-03-15T12:26:10.154Z,478.12
2019-03-15T12:27:08.656Z,416.25
2019-03-15T12:28:08.630Z,444.38
2019-03-15T12:29:09.956Z,489.38
2019-03-15T12:30:08.703Z,466.88
2019-03-15T12:31:08.747Z,393.75
2019-03-15T12:32:08.583Z,382.50
2019-03-15T12:33:08.619Z,376.88
2019-03-15T12:34:09.100Z,360.00
2019-03-15T12:35:08.600Z,399.38
2019-03-15T12:36:08.540Z,399.38
2019-03-15T12:37:08.533Z,360.00
2019-03-15T12:38:08.529Z,292.50
2019-03-15T12:39:08.510Z,247.50
2019-03-15T12:40:08.652Z,225.00
2019-03-15T12:41:08.494Z,219.38
2019-03-15T12:42:08.484Z,213.75
2019-03-15T12:43:08.458Z,236.25
2019-03-15T12:44:10.569Z,270.00
2019-03-15T12:45:08.443Z,286.88
2019-03-15T12:46:09.184Z,298.12
2019-03-15T12:47:08.469Z,258.75
2019-03-15T12:48:08.417Z,208.12
2019-03-15T12:49:08.404Z,196.88